Welcome to our new website - Welkom op onze vernieuwde website - Bienvenue sur notre nouveau site web - Willkommen auf unserer neuen Website

Onweer radar Meer informatie blitzortung!


Regen radar Meer informatie rain snow radar


Andere websites:

Onze vorige site

Leuven Template


METAR rapporten vliegvelden

   
EHGG - Leeuwarden
Gewijzigd: 23-10-2020 23:25
Gedeeltelijk bewolkt  
Gedeeltelijk bewolkt  
   Wind: ZZW 20.4 km/h
Wind: ZZW 20.4 km/h
Temperatuur: 13°C
Dauwpunt: 11°C
Vochtigheid: 88%
Barometer: 1008 hPa
Bewolking: Gedeeltelijk bewolkt
Zicht: 9 km
Bewolking: Gedeeltelijk bewolkt 2500 ft
EHGG 232125Z AUTO 21011KT 9000 SCT025 13/11 Q1008
EHGG - Terschelling
Gewijzigd: 23-10-2020 23:25
Gedeeltelijk bewolkt  
Gedeeltelijk bewolkt  
   Wind: ZZW 20.4 km/h
Wind: ZZW 20.4 km/h
Temperatuur: 13°C
Dauwpunt: 11°C
Vochtigheid: 88%
Barometer: 1008 hPa
Bewolking: Gedeeltelijk bewolkt
Zicht: 9 km
Bewolking: Gedeeltelijk bewolkt 2500 ft
EHGG 232125Z AUTO 21011KT 9000 SCT025 13/11 Q1008
EHAM - Amsterdam
Gewijzigd: 23-10-2020 23:25
Licht bewolkt  
Licht bewolkt  
   Wind: ZW 22.2 km/h
Wind: ZW 22.2 km/h
Temperatuur: 12°C
Dauwpunt: 10°C
Vochtigheid: 88%
Barometer: 1009 hPa
Bewolking: Licht bewolkt
Zicht: meer dan 10 km
Bewolking: Licht bewolkt 1600 ft
EHAM 232125Z 23012KT 9999 FEW016 12/10 Q1009 NOSIG
EHBK - Maastricht
Gewijzigd: 23-10-2020 23:25
Grotendeels bewolkt  
Grotendeels bewolkt  
   Wind: ZZW 18.5 km/h
Wind: ZZW 18.5 km/h
Temperatuur: 14°C
Dauwpunt: 12°C
Vochtigheid: 88%
Barometer: 1012 hPa
Bewolking: Grotendeels bewolkt
Zicht: meer dan 10 km
Bewolking: Grotendeels bewolkt 3900 ft,
Grotendeels bewolkt 4500 ft
EHBK 232125Z AUTO 21010KT 9999 BKN039 BKN045 14/12 Q1012
  

Script ontwikkeld door  Saratoga-weather.org Aangepast voor de template door  Weerstation Leuven

U vindt ons ook hier:

European Weather Network

Weather Underground

AWEKAS

Apparatuur in gebruik:

Weerstation
Davis VP2

Weerprogramma
Cumulus

Davis VP2

Cumulus